Falmouth, VA

9:34 AM EDT on September 05, 2015 (GMT -0400)
Clearview Heights | | Change Station
CLOSE
Current Station
Personal Weather Station
Location: Fredericksburg, VA
Elevation: 154 ft
Nearby Weather Stations

Elev 154 ft 38.32 °N, 77.45 °W | Updated 17 seconds ago

Overcast
Overcast
75.2 °F
Feels Like 76 °F
N
0.0
Wind Variable Wind from North
Gusts 0.0 mph

Today
High -- | Low -- °F
--% Chance of Precip.
Yesterday
High -- | Low -- °F
Precip. -- in
6:42 AM 7:33 PM
Waning Gibbous, 48% visible
Pressure 30.20 in
Visibility 10.0 miles
Clouds Scattered Clouds 1400 ft
Scattered Clouds 4200 ft
Scattered Clouds 11000 ft
Heat Index 76 °F
Dew Point 69 °F
Humidity 82%
Rainfall 0.00 in
Snow Depth Not available.
UV 2 out of 12
Pollen 10.20 out of 12
Air Quality Not available.
Flu Activity Not available.
METAR KEZF 051315Z AUTO 02005KT 10SM SCT014 SCT042 SCT110 24/22 A3020 RMK AO2 T02370222
Pressure 30.20 in
Visibility 10.0 miles
Clouds Scattered Clouds 1400 ft
Scattered Clouds 4200 ft
Scattered Clouds 11000 ft
Heat Index 76 °F
Dew Point 69 °F
Humidity 82%
Rainfall 0.00 in
Snow Depth Not available.
UV 2 out of 12
Pollen 10.20 out of 12
Air Quality Not available.
Flu Activity Not available.
METAR KEZF 051315Z AUTO 02005KT 10SM SCT014 SCT042 SCT110 24/22 A3020 RMK AO2 T02370222

10-Day Weather Forecast

×

Almanac

Astronomy

Sep. 05, 2015 Rise Set
Actual Time
Civil Twilight
Nautical Twilight
Astronomical Twilight
Moon
Length of Visible Light
Length of Day
Tomorrow will be .
, % of the Moon is Illuminated

Today's Extremes

State Highs State Lows

Community

WunderPhotos

Upload Photos

1,852,454 photos uploaded!

WunderBlogs® & News

Nearby

Air Quality

  Air Quality AQ Index Pollutant
Not available.

Snow Depth

Station Depth Elevation

Earthquake Activity

City Distance Mag. Time & Date
Minimum magnitude displayed is 2.5.

Coastal Water Temperatures

Place Temperature

Stations

Nearby Weather Stations

Station Location Temp. Windchill Dew Point Humidity Wind Precip. Elev Updated Type